sensor_id;sensor_type;location;lat;lon;timestamp;P1;durP1;ratioP1;P2;durP2;ratioP2
55489;SDS011;44029;52.956;4.772;2022-12-20T00:01:17;9.88;;;2.80;;
55489;SDS011;44029;52.956;4.772;2022-12-20T00:03:44;11.88;;;3.00;;
55489;SDS011;44029;52.956;4.772;2022-12-20T00:06:10;8.73;;;2.70;;
55489;SDS011;44029;52.956;4.772;2022-12-20T00:08:37;13.52;;;3.88;;
55489;SDS011;44029;52.956;4.772;2022-12-20T00:11:03;9.70;;;2.78;;
55489;SDS011;44029;52.956;4.772;2022-12-20T00:13:30;7.65;;;3.05;;
55489;SDS011;44029;52.956;4.772;2022-12-20T00:16:03;7.93;;;2.85;;
55489;SDS011;44029;52.956;4.772;2022-12-20T00:18:36;8.30;;;2.35;;
55489;SDS011;44029;52.956;4.772;2022-12-20T00:21:03;8.63;;;2.72;;
55489;SDS011;44029;52.956;4.772;2022-12-20T00:23:30;7.57;;;2.63;;
55489;SDS011;44029;52.956;4.772;2022-12-20T00:26:15;6.43;;;3.17;;
55489;SDS011;44029;52.956;4.772;2022-12-20T00:28:43;10.60;;;3.15;;
55489;SDS011;44029;52.956;4.772;2022-12-20T00:31:09;5.95;;;3.03;;
55489;SDS011;44029;52.956;4.772;2022-12-20T00:33:36;9.57;;;2.67;;
55489;SDS011;44029;52.956;4.772;2022-12-20T00:36:03;7.03;;;2.63;;
55489;SDS011;44029;52.956;4.772;2022-12-20T00:38:30;9.48;;;3.45;;
55489;SDS011;44029;52.956;4.772;2022-12-20T00:41:02;6.88;;;2.75;;
55489;SDS011;44029;52.956;4.772;2022-12-20T00:43:34;4.65;;;2.45;;
55489;SDS011;44029;52.956;4.772;2022-12-20T00:46:00;4.13;;;2.45;;
55489;SDS011;44029;52.956;4.772;2022-12-20T00:48:26;14.63;;;3.45;;
55489;SDS011;44029;52.956;4.772;2022-12-20T00:50:56;12.48;;;3.65;;
55489;SDS011;44029;52.956;4.772;2022-12-20T00:53:26;9.32;;;2.97;;
55489;SDS011;44029;52.956;4.772;2022-12-20T00:55:52;7.18;;;2.60;;
55489;SDS011;44029;52.956;4.772;2022-12-20T00:58:18;4.95;;;2.45;;
55489;SDS011;44029;52.956;4.772;2022-12-20T01:00:44;13.30;;;7.05;;
55489;SDS011;44029;52.956;4.772;2022-12-20T01:03:09;13.02;;;4.28;;
55489;SDS011;44029;52.956;4.772;2022-12-20T01:05:34;12.32;;;3.15;;
55489;SDS011;44029;52.956;4.772;2022-12-20T01:08:00;6.85;;;2.50;;
55489;SDS011;44029;52.956;4.772;2022-12-20T01:10:25;12.63;;;4.28;;
55489;SDS011;44029;52.956;4.772;2022-12-20T01:12:51;6.78;;;3.15;;
55489;SDS011;44029;52.956;4.772;2022-12-20T01:15:17;7.30;;;2.78;;
55489;SDS011;44029;52.956;4.772;2022-12-20T01:17:43;9.23;;;3.20;;
55489;SDS011;44029;52.956;4.772;2022-12-20T01:20:08;5.40;;;2.58;;
55489;SDS011;44029;52.956;4.772;2022-12-20T01:22:34;8.07;;;3.03;;
55489;SDS011;44029;52.956;4.772;2022-12-20T01:25:00;9.32;;;2.70;;
55489;SDS011;44029;52.956;4.772;2022-12-20T01:27:25;9.90;;;2.85;;
55489;SDS011;44029;52.956;4.772;2022-12-20T01:29:51;6.72;;;2.85;;
55489;SDS011;44029;52.956;4.772;2022-12-20T01:32:16;4.22;;;2.33;;
55489;SDS011;44029;52.956;4.772;2022-12-20T01:34:41;4.55;;;2.10;;
55489;SDS011;44029;52.956;4.772;2022-12-20T01:37:07;6.40;;;2.95;;
55489;SDS011;44029;52.956;4.772;2022-12-20T01:39:32;6.88;;;2.95;;
55489;SDS011;44029;52.956;4.772;2022-12-20T01:41:58;8.18;;;3.03;;
55489;SDS011;44029;52.956;4.772;2022-12-20T01:46:48;10.20;;;2.65;;
55489;SDS011;44029;52.956;4.772;2022-12-20T01:51:49;10.68;;;2.80;;
55489;SDS011;44029;52.956;4.772;2022-12-20T01:54:24;12.88;;;3.47;;
55489;SDS011;44029;52.956;4.772;2022-12-20T01:57:06;8.65;;;2.75;;
55489;SDS011;44029;52.956;4.772;2022-12-20T01:59:36;11.88;;;3.38;;
55489;SDS011;44029;52.956;4.772;2022-12-20T02:02:05;6.10;;;2.60;;
55489;SDS011;44029;52.956;4.772;2022-12-20T02:04:33;7.45;;;2.70;;
55489;SDS011;44029;52.956;4.772;2022-12-20T02:06:59;13.18;;;3.28;;
55489;SDS011;44029;52.956;4.772;2022-12-20T02:09:26;11.98;;;3.25;;
55489;SDS011;44029;52.956;4.772;2022-12-20T02:14:42;4.97;;;2.00;;
55489;SDS011;44029;52.956;4.772;2022-12-20T02:17:18;4.72;;;2.75;;
55489;SDS011;44029;52.956;4.772;2022-12-20T02:28:22;7.38;;;3.50;;
55489;SDS011;44029;52.956;4.772;2022-12-20T02:30:52;8.10;;;4.22;;
55489;SDS011;44029;52.956;4.772;2022-12-20T02:33:19;4.65;;;3.25;;
55489;SDS011;44029;52.956;4.772;2022-12-20T02:35:48;6.13;;;4.10;;
55489;SDS011;44029;52.956;4.772;2022-12-20T02:38:27;6.85;;;3.80;;
55489;SDS011;44029;52.956;4.772;2022-12-20T02:41:00;9.02;;;3.65;;
55489;SDS011;44029;52.956;4.772;2022-12-20T02:43:27;5.25;;;3.33;;
55489;SDS011;44029;52.956;4.772;2022-12-20T02:46:13;4.50;;;2.90;;
55489;SDS011;44029;52.956;4.772;2022-12-20T02:48:40;8.30;;;3.40;;
55489;SDS011;44029;52.956;4.772;2022-12-20T02:51:06;7.53;;;3.25;;
55489;SDS011;44029;52.956;4.772;2022-12-20T02:53:34;7.13;;;3.40;;
55489;SDS011;44029;52.956;4.772;2022-12-20T02:56:04;7.00;;;3.40;;
55489;SDS011;44029;52.956;4.772;2022-12-20T02:58:42;6.80;;;3.20;;
55489;SDS011;44029;52.956;4.772;2022-12-20T03:01:11;8.50;;;3.10;;
55489;SDS011;44029;52.956;4.772;2022-12-20T03:03:43;6.28;;;3.05;;
55489;SDS011;44029;52.956;4.772;2022-12-20T03:06:09;6.20;;;3.00;;
55489;SDS011;44029;52.956;4.772;2022-12-20T03:08:35;6.25;;;3.00;;
55489;SDS011;44029;52.956;4.772;2022-12-20T03:11:00;5.35;;;2.88;;
55489;SDS011;44029;52.956;4.772;2022-12-20T03:13:25;7.07;;;3.13;;
55489;SDS011;44029;52.956;4.772;2022-12-20T03:15:51;7.43;;;3.28;;
55489;SDS011;44029;52.956;4.772;2022-12-20T03:18:17;6.07;;;2.63;;
55489;SDS011;44029;52.956;4.772;2022-12-20T03:20:42;10.10;;;3.08;;
55489;SDS011;44029;52.956;4.772;2022-12-20T03:23:08;6.85;;;3.05;;
55489;SDS011;44029;52.956;4.772;2022-12-20T03:25:33;4.47;;;2.70;;
55489;SDS011;44029;52.956;4.772;2022-12-20T03:27:59;8.43;;;3.20;;
55489;SDS011;44029;52.956;4.772;2022-12-20T03:30:24;6.75;;;3.30;;
55489;SDS011;44029;52.956;4.772;2022-12-20T03:32:50;8.30;;;3.38;;
55489;SDS011;44029;52.956;4.772;2022-12-20T03:35:15;5.40;;;3.33;;
55489;SDS011;44029;52.956;4.772;2022-12-20T03:37:40;6.60;;;3.60;;
55489;SDS011;44029;52.956;4.772;2022-12-20T03:40:06;7.15;;;3.55;;
55489;SDS011;44029;52.956;4.772;2022-12-20T03:42:32;7.70;;;3.78;;
55489;SDS011;44029;52.956;4.772;2022-12-20T03:44:58;6.65;;;3.25;;
55489;SDS011;44029;52.956;4.772;2022-12-20T03:47:23;10.02;;;4.07;;
55489;SDS011;44029;52.956;4.772;2022-12-20T03:49:48;5.63;;;3.28;;
55489;SDS011;44029;52.956;4.772;2022-12-20T03:52:15;8.50;;;3.97;;
55489;SDS011;44029;52.956;4.772;2022-12-20T03:54:41;6.18;;;3.28;;
55489;SDS011;44029;52.956;4.772;2022-12-20T03:57:07;11.25;;;3.67;;
55489;SDS011;44029;52.956;4.772;2022-12-20T03:59:32;7.90;;;3.45;;
55489;SDS011;44029;52.956;4.772;2022-12-20T04:01:58;6.22;;;3.30;;
55489;SDS011;44029;52.956;4.772;2022-12-20T04:04:23;6.65;;;3.53;;
55489;SDS011;44029;52.956;4.772;2022-12-20T04:06:49;7.45;;;3.45;;
55489;SDS011;44029;52.956;4.772;2022-12-20T04:09:14;9.05;;;4.10;;
55489;SDS011;44029;52.956;4.772;2022-12-20T04:11:40;6.68;;;3.65;;
55489;SDS011;44029;52.956;4.772;2022-12-20T04:14:06;7.85;;;3.42;;
55489;SDS011;44029;52.956;4.772;2022-12-20T04:16:31;5.38;;;3.80;;
55489;SDS011;44029;52.956;4.772;2022-12-20T04:18:57;6.50;;;3.50;;
55489;SDS011;44029;52.956;4.772;2022-12-20T04:21:27;12.82;;;4.05;;
55489;SDS011;44029;52.956;4.772;2022-12-20T04:23:54;9.17;;;3.93;;
55489;SDS011;44029;52.956;4.772;2022-12-20T04:26:20;6.85;;;3.67;;
55489;SDS011;44029;52.956;4.772;2022-12-20T04:28:46;4.43;;;2.75;;
55489;SDS011;44029;52.956;4.772;2022-12-20T04:31:11;4.88;;;3.10;;
55489;SDS011;44029;52.956;4.772;2022-12-20T04:33:37;5.22;;;2.72;;
55489;SDS011;44029;52.956;4.772;2022-12-20T04:36:02;8.23;;;3.42;;
55489;SDS011;44029;52.956;4.772;2022-12-20T04:38:28;5.57;;;3.45;;
55489;SDS011;44029;52.956;4.772;2022-12-20T04:40:53;6.53;;;3.20;;
55489;SDS011;44029;52.956;4.772;2022-12-20T04:43:20;5.13;;;2.80;;
55489;SDS011;44029;52.956;4.772;2022-12-20T04:45:47;5.78;;;3.08;;
55489;SDS011;44029;52.956;4.772;2022-12-20T04:48:14;6.82;;;2.83;;
55489;SDS011;44029;52.956;4.772;2022-12-20T04:50:40;9.75;;;3.35;;
55489;SDS011;44029;52.956;4.772;2022-12-20T04:53:05;12.88;;;2.72;;
55489;SDS011;44029;52.956;4.772;2022-12-20T04:55:49;6.95;;;2.58;;
55489;SDS011;44029;52.956;4.772;2022-12-20T04:58:15;9.82;;;3.03;;
55489;SDS011;44029;52.956;4.772;2022-12-20T05:00:40;12.30;;;3.15;;
55489;SDS011;44029;52.956;4.772;2022-12-20T05:03:06;4.88;;;2.25;;
55489;SDS011;44029;52.956;4.772;2022-12-20T05:05:31;8.95;;;2.60;;
55489;SDS011;44029;52.956;4.772;2022-12-20T05:07:57;9.70;;;3.38;;
55489;SDS011;44029;52.956;4.772;2022-12-20T05:10:22;12.95;;;3.05;;
55489;SDS011;44029;52.956;4.772;2022-12-20T05:12:48;11.57;;;3.25;;
55489;SDS011;44029;52.956;4.772;2022-12-20T05:15:13;10.82;;;3.45;;
55489;SDS011;44029;52.956;4.772;2022-12-20T05:17:39;17.08;;;3.75;;
55489;SDS011;44029;52.956;4.772;2022-12-20T05:20:04;10.57;;;3.22;;
55489;SDS011;44029;52.956;4.772;2022-12-20T05:22:31;12.18;;;3.50;;
55489;SDS011;44029;52.956;4.772;2022-12-20T05:25:15;15.88;;;3.13;;
55489;SDS011;44029;52.956;4.772;2022-12-20T05:27:59;8.40;;;2.63;;
55489;SDS011;44029;52.956;4.772;2022-12-20T05:30:25;11.48;;;3.30;;
55489;SDS011;44029;52.956;4.772;2022-12-20T05:32:51;13.02;;;3.42;;
55489;SDS011;44029;52.956;4.772;2022-12-20T05:35:16;10.00;;;3.03;;
55489;SDS011;44029;52.956;4.772;2022-12-20T05:37:41;4.85;;;2.83;;
55489;SDS011;44029;52.956;4.772;2022-12-20T05:40:07;3.97;;;2.83;;
55489;SDS011;44029;52.956;4.772;2022-12-20T05:42:33;9.98;;;3.45;;
55489;SDS011;44029;52.956;4.772;2022-12-20T05:44:59;5.18;;;2.85;;
55489;SDS011;44029;52.956;4.772;2022-12-20T05:47:25;8.30;;;3.20;;
55489;SDS011;44029;52.956;4.772;2022-12-20T05:49:51;11.82;;;4.10;;
55489;SDS011;44029;52.956;4.772;2022-12-20T05:52:16;15.20;;;3.10;;
55489;SDS011;44029;52.956;4.772;2022-12-20T05:54:41;10.93;;;3.53;;
55489;SDS011;44029;52.956;4.772;2022-12-20T05:57:07;16.15;;;3.90;;
55489;SDS011;44029;52.956;4.772;2022-12-20T05:59:32;14.38;;;3.65;;
55489;SDS011;44029;52.956;4.772;2022-12-20T06:01:57;12.52;;;3.63;;
55489;SDS011;44029;52.956;4.772;2022-12-20T06:04:23;11.02;;;3.95;;
55489;SDS011;44029;52.956;4.772;2022-12-20T06:06:48;10.95;;;3.70;;
55489;SDS011;44029;52.956;4.772;2022-12-20T06:09:13;10.68;;;3.17;;
55489;SDS011;44029;52.956;4.772;2022-12-20T06:11:39;10.25;;;4.15;;
55489;SDS011;44029;52.956;4.772;2022-12-20T06:14:04;5.20;;;3.53;;
55489;SDS011;44029;52.956;4.772;2022-12-20T06:16:30;7.20;;;2.90;;
55489;SDS011;44029;52.956;4.772;2022-12-20T06:18:55;11.07;;;3.28;;
55489;SDS011;44029;52.956;4.772;2022-12-20T06:21:21;11.25;;;2.80;;
55489;SDS011;44029;52.956;4.772;2022-12-20T06:23:46;6.70;;;2.38;;
55489;SDS011;44029;52.956;4.772;2022-12-20T06:26:12;8.50;;;2.97;;
55489;SDS011;44029;52.956;4.772;2022-12-20T06:28:37;8.27;;;2.55;;
55489;SDS011;44029;52.956;4.772;2022-12-20T06:31:07;6.95;;;3.00;;
55489;SDS011;44029;52.956;4.772;2022-12-20T06:33:34;8.23;;;3.38;;
55489;SDS011;44029;52.956;4.772;2022-12-20T06:36:00;7.35;;;2.92;;
55489;SDS011;44029;52.956;4.772;2022-12-20T06:38:25;9.80;;;2.95;;
55489;SDS011;44029;52.956;4.772;2022-12-20T06:40:51;7.63;;;2.80;;
55489;SDS011;44029;52.956;4.772;2022-12-20T06:43:16;6.32;;;2.30;;
55489;SDS011;44029;52.956;4.772;2022-12-20T06:45:42;7.55;;;3.28;;
55489;SDS011;44029;52.956;4.772;2022-12-20T06:48:07;4.97;;;2.85;;
55489;SDS011;44029;52.956;4.772;2022-12-20T06:50:33;14.13;;;2.60;;
55489;SDS011;44029;52.956;4.772;2022-12-20T06:52:58;11.48;;;3.33;;
55489;SDS011;44029;52.956;4.772;2022-12-20T06:55:24;7.22;;;2.67;;
55489;SDS011;44029;52.956;4.772;2022-12-20T06:57:49;13.40;;;3.88;;
55489;SDS011;44029;52.956;4.772;2022-12-20T07:00:15;6.18;;;3.10;;
55489;SDS011;44029;52.956;4.772;2022-12-20T07:02:41;5.35;;;2.58;;
55489;SDS011;44029;52.956;4.772;2022-12-20T07:05:06;10.23;;;2.85;;
55489;SDS011;44029;52.956;4.772;2022-12-20T07:07:32;9.68;;;3.33;;
55489;SDS011;44029;52.956;4.772;2022-12-20T07:09:57;10.50;;;2.83;;
55489;SDS011;44029;52.956;4.772;2022-12-20T07:12:23;5.43;;;2.40;;
55489;SDS011;44029;52.956;4.772;2022-12-20T07:14:49;7.97;;;2.60;;
55489;SDS011;44029;52.956;4.772;2022-12-20T07:17:14;8.77;;;2.95;;
55489;SDS011;44029;52.956;4.772;2022-12-20T07:19:39;4.32;;;2.75;;
55489;SDS011;44029;52.956;4.772;2022-12-20T07:22:06;4.15;;;2.50;;
55489;SDS011;44029;52.956;4.772;2022-12-20T07:24:32;3.15;;;2.40;;
55489;SDS011;44029;52.956;4.772;2022-12-20T07:26:58;7.38;;;2.72;;
55489;SDS011;44029;52.956;4.772;2022-12-20T07:29:23;7.68;;;2.80;;
55489;SDS011;44029;52.956;4.772;2022-12-20T07:31:49;5.63;;;2.15;;
55489;SDS011;44029;52.956;4.772;2022-12-20T07:34:15;5.72;;;2.75;;
55489;SDS011;44029;52.956;4.772;2022-12-20T07:36:41;10.82;;;2.70;;
55489;SDS011;44029;52.956;4.772;2022-12-20T07:39:06;6.28;;;2.65;;
55489;SDS011;44029;52.956;4.772;2022-12-20T07:41:32;9.98;;;2.70;;
55489;SDS011;44029;52.956;4.772;2022-12-20T07:43:57;4.45;;;2.80;;
55489;SDS011;44029;52.956;4.772;2022-12-20T07:46:23;6.10;;;2.47;;
55489;SDS011;44029;52.956;4.772;2022-12-20T07:48:48;8.52;;;2.40;;
55489;SDS011;44029;52.956;4.772;2022-12-20T07:51:15;9.32;;;3.00;;
55489;SDS011;44029;52.956;4.772;2022-12-20T07:53:47;9.23;;;3.22;;
55489;SDS011;44029;52.956;4.772;2022-12-20T07:56:17;5.32;;;2.13;;
55489;SDS011;44029;52.956;4.772;2022-12-20T07:58:45;6.13;;;2.40;;
55489;SDS011;44029;52.956;4.772;2022-12-20T08:01:11;5.95;;;3.03;;
55489;SDS011;44029;52.956;4.772;2022-12-20T08:03:39;8.55;;;3.03;;
55489;SDS011;44029;52.956;4.772;2022-12-20T08:06:09;4.70;;;2.45;;
55489;SDS011;44029;52.956;4.772;2022-12-20T08:08:35;5.25;;;2.65;;
55489;SDS011;44029;52.956;4.772;2022-12-20T08:11:06;6.55;;;2.30;;
55489;SDS011;44029;52.956;4.772;2022-12-20T08:13:34;6.28;;;3.03;;
55489;SDS011;44029;52.956;4.772;2022-12-20T08:16:00;11.70;;;3.03;;
55489;SDS011;44029;52.956;4.772;2022-12-20T08:18:25;7.05;;;2.67;;
55489;SDS011;44029;52.956;4.772;2022-12-20T08:20:51;14.52;;;3.25;;
55489;SDS011;44029;52.956;4.772;2022-12-20T08:23:16;6.88;;;2.47;;
55489;SDS011;44029;52.956;4.772;2022-12-20T08:25:43;10.52;;;2.05;;
55489;SDS011;44029;52.956;4.772;2022-12-20T08:28:09;5.43;;;2.60;;
55489;SDS011;44029;52.956;4.772;2022-12-20T08:30:34;4.63;;;2.15;;
55489;SDS011;44029;52.956;4.772;2022-12-20T08:33:00;5.75;;;2.10;;
55489;SDS011;44029;52.956;4.772;2022-12-20T08:35:25;7.20;;;2.20;;
55489;SDS011;44029;52.956;4.772;2022-12-20T08:37:51;6.63;;;2.28;;
55489;SDS011;44029;52.956;4.772;2022-12-20T08:40:17;3.80;;;2.40;;
55489;SDS011;44029;52.956;4.772;2022-12-20T08:42:43;4.20;;;2.00;;
55489;SDS011;44029;52.956;4.772;2022-12-20T08:45:09;3.35;;;1.98;;
55489;SDS011;44029;52.956;4.772;2022-12-20T08:47:34;4.45;;;1.95;;
55489;SDS011;44029;52.956;4.772;2022-12-20T08:50:00;6.90;;;2.53;;
55489;SDS011;44029;52.956;4.772;2022-12-20T08:52:27;8.68;;;2.20;;
55489;SDS011;44029;52.956;4.772;2022-12-20T08:54:53;6.78;;;2.38;;
55489;SDS011;44029;52.956;4.772;2022-12-20T08:57:18;11.57;;;2.58;;
55489;SDS011;44029;52.956;4.772;2022-12-20T08:59:44;5.93;;;2.05;;
55489;SDS011;44029;52.956;4.772;2022-12-20T09:02:09;5.13;;;2.08;;
55489;SDS011;44029;52.956;4.772;2022-12-20T09:04:35;6.43;;;2.78;;
55489;SDS011;44029;52.956;4.772;2022-12-20T09:07:00;10.23;;;2.72;;
55489;SDS011;44029;52.956;4.772;2022-12-20T09:09:26;8.18;;;2.70;;
55489;SDS011;44029;52.956;4.772;2022-12-20T09:11:51;7.15;;;2.38;;
55489;SDS011;44029;52.956;4.772;2022-12-20T09:14:17;9.52;;;2.67;;
55489;SDS011;44029;52.956;4.772;2022-12-20T09:16:43;5.25;;;2.33;;
55489;SDS011;44029;52.956;4.772;2022-12-20T09:19:12;3.38;;;2.10;;
55489;SDS011;44029;52.956;4.772;2022-12-20T09:21:38;6.97;;;2.70;;
55489;SDS011;44029;52.956;4.772;2022-12-20T09:24:04;6.93;;;2.28;;
55489;SDS011;44029;52.956;4.772;2022-12-20T09:26:30;4.47;;;1.95;;
55489;SDS011;44029;52.956;4.772;2022-12-20T09:28:56;5.35;;;2.17;;
55489;SDS011;44029;52.956;4.772;2022-12-20T09:31:23;6.20;;;2.47;;
55489;SDS011;44029;52.956;4.772;2022-12-20T09:33:54;6.25;;;2.00;;
55489;SDS011;44029;52.956;4.772;2022-12-20T09:36:22;7.45;;;2.55;;
55489;SDS011;44029;52.956;4.772;2022-12-20T09:38:49;2.53;;;1.85;;
55489;SDS011;44029;52.956;4.772;2022-12-20T09:43:50;9.07;;;2.63;;
55489;SDS011;44029;52.956;4.772;2022-12-20T09:46:16;4.97;;;2.28;;
55489;SDS011;44029;52.956;4.772;2022-12-20T09:48:42;4.13;;;2.28;;
55489;SDS011;44029;52.956;4.772;2022-12-20T09:53:37;6.07;;;2.45;;
55489;SDS011;44029;52.956;4.772;2022-12-20T09:56:15;9.25;;;2.25;;
55489;SDS011;44029;52.956;4.772;2022-12-20T10:01:24;3.55;;;1.90;;
55489;SDS011;44029;52.956;4.772;2022-12-20T10:03:52;9.02;;;2.53;;
55489;SDS011;44029;52.956;4.772;2022-12-20T10:08:54;5.00;;;1.95;;
55489;SDS011;44029;52.956;4.772;2022-12-20T10:17:11;7.00;;;2.45;;
55489;SDS011;44029;52.956;4.772;2022-12-20T10:22:32;6.47;;;2.30;;
55489;SDS011;44029;52.956;4.772;2022-12-20T10:27:31;9.52;;;2.47;;
55489;SDS011;44029;52.956;4.772;2022-12-20T10:30:04;8.85;;;2.40;;
55489;SDS011;44029;52.956;4.772;2022-12-20T10:32:42;6.25;;;2.78;;
55489;SDS011;44029;52.956;4.772;2022-12-20T10:37:35;13.25;;;2.42;;
55489;SDS011;44029;52.956;4.772;2022-12-20T10:40:01;10.25;;;3.85;;
55489;SDS011;44029;52.956;4.772;2022-12-20T10:45:03;13.20;;;3.15;;
55489;SDS011;44029;52.956;4.772;2022-12-20T10:47:50;10.63;;;2.90;;
55489;SDS011;44029;52.956;4.772;2022-12-20T10:50:24;10.40;;;2.83;;
55489;SDS011;44029;52.956;4.772;2022-12-20T10:55:49;13.75;;;3.42;;
55489;SDS011;44029;52.956;4.772;2022-12-20T11:01:03;15.93;;;3.90;;
55489;SDS011;44029;52.956;4.772;2022-12-20T11:03:48;17.90;;;4.32;;
55489;SDS011;44029;52.956;4.772;2022-12-20T11:06:16;17.42;;;3.20;;
55489;SDS011;44029;52.956;4.772;2022-12-20T11:08:43;12.80;;;3.33;;
55489;SDS011;44029;52.956;4.772;2022-12-20T11:11:18;14.55;;;3.65;;
55489;SDS011;44029;52.956;4.772;2022-12-20T11:13:46;13.32;;;3.35;;
55489;SDS011;44029;52.956;4.772;2022-12-20T11:16:23;10.15;;;3.25;;
55489;SDS011;44029;52.956;4.772;2022-12-20T11:19:19;16.42;;;2.90;;
55489;SDS011;44029;52.956;4.772;2022-12-20T11:27:43;15.73;;;3.42;;
55489;SDS011;44029;52.956;4.772;2022-12-20T11:36:01;16.80;;;3.38;;
55489;SDS011;44029;52.956;4.772;2022-12-20T11:38:37;19.70;;;3.72;;
55489;SDS011;44029;52.956;4.772;2022-12-20T11:41:09;13.68;;;3.45;;
55489;SDS011;44029;52.956;4.772;2022-12-20T11:43:47;12.27;;;3.33;;
55489;SDS011;44029;52.956;4.772;2022-12-20T11:51:51;13.10;;;3.55;;
55489;SDS011;44029;52.956;4.772;2022-12-20T11:54:35;18.50;;;3.28;;
55489;SDS011;44029;52.956;4.772;2022-12-20T11:57:28;13.52;;;3.00;;
55489;SDS011;44029;52.956;4.772;2022-12-20T12:02:32;8.75;;;2.78;;
55489;SDS011;44029;52.956;4.772;2022-12-20T12:05:05;6.88;;;2.75;;
55489;SDS011;44029;52.956;4.772;2022-12-20T12:07:39;11.70;;;2.90;;
55489;SDS011;44029;52.956;4.772;2022-12-20T12:12:44;16.23;;;3.20;;
55489;SDS011;44029;52.956;4.772;2022-12-20T12:17:47;13.95;;;3.35;;
55489;SDS011;44029;52.956;4.772;2022-12-20T12:22:47;15.63;;;3.65;;
55489;SDS011;44029;52.956;4.772;2022-12-20T12:25:16;12.50;;;3.65;;
55489;SDS011;44029;52.956;4.772;2022-12-20T12:27:43;10.77;;;3.53;;
55489;SDS011;44029;52.956;4.772;2022-12-20T12:30:13;18.05;;;3.83;;
55489;SDS011;44029;52.956;4.772;2022-12-20T12:32:44;19.63;;;3.90;;
55489;SDS011;44029;52.956;4.772;2022-12-20T12:37:53;20.65;;;4.07;;
55489;SDS011;44029;52.956;4.772;2022-12-20T12:49:24;19.90;;;4.65;;
55489;SDS011;44029;52.956;4.772;2022-12-20T12:52:04;19.90;;;4.38;;
55489;SDS011;44029;52.956;4.772;2022-12-20T12:54:37;14.95;;;4.88;;
55489;SDS011;44029;52.956;4.772;2022-12-20T12:57:11;14.13;;;3.75;;
55489;SDS011;44029;52.956;4.772;2022-12-20T12:59:40;27.00;;;3.85;;
55489;SDS011;44029;52.956;4.772;2022-12-20T13:09:56;23.00;;;4.78;;
55489;SDS011;44029;52.956;4.772;2022-12-20T13:24:27;22.35;;;4.18;;
55489;SDS011;44029;52.956;4.772;2022-12-20T13:26:58;23.58;;;3.50;;
55489;SDS011;44029;52.956;4.772;2022-12-20T13:29:26;30.27;;;6.72;;
55489;SDS011;44029;52.956;4.772;2022-12-20T13:31:57;25.60;;;4.55;;
55489;SDS011;44029;52.956;4.772;2022-12-20T13:37:00;24.02;;;5.63;;
55489;SDS011;44029;52.956;4.772;2022-12-20T13:41:52;32.72;;;6.03;;
55489;SDS011;44029;52.956;4.772;2022-12-20T13:44:44;21.77;;;5.00;;
55489;SDS011;44029;52.956;4.772;2022-12-20T13:49:49;26.48;;;5.75;;
55489;SDS011;44029;52.956;4.772;2022-12-20T13:52:23;23.35;;;4.90;;
55489;SDS011;44029;52.956;4.772;2022-12-20T13:54:56;23.85;;;5.50;;
55489;SDS011;44029;52.956;4.772;2022-12-20T13:57:31;25.75;;;5.75;;
55489;SDS011;44029;52.956;4.772;2022-12-20T14:00:05;22.98;;;5.38;;
55489;SDS011;44029;52.956;4.772;2022-12-20T14:02:39;26.98;;;4.50;;
55489;SDS011;44029;52.956;4.772;2022-12-20T14:05:14;23.80;;;4.82;;
55489;SDS011;44029;52.956;4.772;2022-12-20T14:08:01;28.95;;;6.03;;
55489;SDS011;44029;52.956;4.772;2022-12-20T14:10:30;28.42;;;5.05;;
55489;SDS011;44029;52.956;4.772;2022-12-20T14:12:58;22.80;;;4.93;;
55489;SDS011;44029;52.956;4.772;2022-12-20T14:17:49;20.67;;;4.63;;
55489;SDS011;44029;52.956;4.772;2022-12-20T14:20:15;30.13;;;4.97;;
55489;SDS011;44029;52.956;4.772;2022-12-20T14:25:18;28.58;;;9.05;;
55489;SDS011;44029;52.956;4.772;2022-12-20T14:27:52;20.55;;;5.53;;
55489;SDS011;44029;52.956;4.772;2022-12-20T14:30:25;20.10;;;4.88;;
55489;SDS011;44029;52.956;4.772;2022-12-20T14:32:51;21.83;;;5.43;;
55489;SDS011;44029;52.956;4.772;2022-12-20T14:35:19;28.38;;;5.40;;
55489;SDS011;44029;52.956;4.772;2022-12-20T14:37:51;22.05;;;5.55;;
55489;SDS011;44029;52.956;4.772;2022-12-20T14:40:28;27.85;;;5.22;;
55489;SDS011;44029;52.956;4.772;2022-12-20T14:42:54;22.85;;;5.68;;
55489;SDS011;44029;52.956;4.772;2022-12-20T14:45:24;21.13;;;5.07;;
55489;SDS011;44029;52.956;4.772;2022-12-20T14:48:02;27.73;;;6.63;;
55489;SDS011;44029;52.956;4.772;2022-12-20T14:50:34;24.17;;;5.30;;
55489;SDS011;44029;52.956;4.772;2022-12-20T14:53:01;29.63;;;6.57;;
55489;SDS011;44029;52.956;4.772;2022-12-20T14:55:34;26.20;;;5.45;;
55489;SDS011;44029;52.956;4.772;2022-12-20T14:58:22;20.88;;;6.20;;
55489;SDS011;44029;52.956;4.772;2022-12-20T15:03:27;36.78;;;6.18;;
55489;SDS011;44029;52.956;4.772;2022-12-20T15:05:57;20.17;;;4.88;;
55489;SDS011;44029;52.956;4.772;2022-12-20T15:08:30;25.90;;;5.68;;
55489;SDS011;44029;52.956;4.772;2022-12-20T15:13:35;27.17;;;5.82;;
55489;SDS011;44029;52.956;4.772;2022-12-20T15:16:19;22.45;;;5.85;;
55489;SDS011;44029;52.956;4.772;2022-12-20T15:18:46;21.90;;;5.35;;
55489;SDS011;44029;52.956;4.772;2022-12-20T15:21:16;27.67;;;5.80;;
55489;SDS011;44029;52.956;4.772;2022-12-20T15:23:51;22.02;;;5.38;;
55489;SDS011;44029;52.956;4.772;2022-12-20T15:26:19;19.42;;;5.60;;
55489;SDS011;44029;52.956;4.772;2022-12-20T15:28:49;19.27;;;5.60;;
55489;SDS011;44029;52.956;4.772;2022-12-20T15:31:15;34.15;;;6.72;;
55489;SDS011;44029;52.956;4.772;2022-12-20T15:33:43;32.53;;;9.75;;
55489;SDS011;44029;52.956;4.772;2022-12-20T15:36:17;27.60;;;7.15;;
55489;SDS011;44029;52.956;4.772;2022-12-20T15:38:45;23.58;;;5.32;;
55489;SDS011;44029;52.956;4.772;2022-12-20T15:43:56;15.20;;;6.30;;
55489;SDS011;44029;52.956;4.772;2022-12-20T15:46:24;25.20;;;5.80;;
55489;SDS011;44029;52.956;4.772;2022-12-20T15:48:49;41.50;;;7.43;;
55489;SDS011;44029;52.956;4.772;2022-12-20T15:51:16;31.52;;;6.30;;
55489;SDS011;44029;52.956;4.772;2022-12-20T15:53:48;30.55;;;6.88;;
55489;SDS011;44029;52.956;4.772;2022-12-20T15:56:17;22.95;;;5.72;;
55489;SDS011;44029;52.956;4.772;2022-12-20T15:58:46;25.92;;;6.55;;
55489;SDS011;44029;52.956;4.772;2022-12-20T16:01:23;23.27;;;5.30;;
55489;SDS011;44029;52.956;4.772;2022-12-20T16:03:53;19.13;;;5.00;;
55489;SDS011;44029;52.956;4.772;2022-12-20T16:06:18;42.67;;;13.88;;
55489;SDS011;44029;52.956;4.772;2022-12-20T16:08:44;42.80;;;9.05;;
55489;SDS011;44029;52.956;4.772;2022-12-20T16:11:20;27.95;;;6.97;;
55489;SDS011;44029;52.956;4.772;2022-12-20T16:13:47;25.73;;;6.22;;
55489;SDS011;44029;52.956;4.772;2022-12-20T16:16:14;36.63;;;9.95;;
55489;SDS011;44029;52.956;4.772;2022-12-20T16:18:42;24.70;;;7.22;;
55489;SDS011;44029;52.956;4.772;2022-12-20T16:21:30;30.60;;;7.03;;
55489;SDS011;44029;52.956;4.772;2022-12-20T16:23:56;28.02;;;8.13;;
55489;SDS011;44029;52.956;4.772;2022-12-20T16:26:22;30.40;;;9.18;;
55489;SDS011;44029;52.956;4.772;2022-12-20T16:28:49;48.97;;;17.98;;
55489;SDS011;44029;52.956;4.772;2022-12-20T16:33:58;28.48;;;6.05;;
55489;SDS011;44029;52.956;4.772;2022-12-20T16:36:27;23.50;;;5.22;;
55489;SDS011;44029;52.956;4.772;2022-12-20T16:38:53;22.42;;;5.03;;
55489;SDS011;44029;52.956;4.772;2022-12-20T16:41:20;31.25;;;8.90;;
55489;SDS011;44029;52.956;4.772;2022-12-20T16:43:52;27.80;;;8.70;;
55489;SDS011;44029;52.956;4.772;2022-12-20T16:46:19;33.47;;;7.60;;
55489;SDS011;44029;52.956;4.772;2022-12-20T16:48:46;37.90;;;10.82;;
55489;SDS011;44029;52.956;4.772;2022-12-20T16:56:24;13.32;;;3.60;;
55489;SDS011;44029;52.956;4.772;2022-12-20T16:58:50;17.58;;;4.05;;
55489;SDS011;44029;52.956;4.772;2022-12-20T17:01:16;9.80;;;3.75;;
55489;SDS011;44029;52.956;4.772;2022-12-20T17:03:46;15.23;;;5.13;;